Terminal Aerodrome Forecast
Issued by NWS Sterling, VA

Current Version | Previous Version | Text Only | Print | Product List | Glossary Off
Versions: 1 2 3 4 5 6 7 8 9 10 11 12 13 14 15 16 17 18 19 20 21

172
FTUS41 KLWX 182320
TAFDCA
TAF
KDCA 182320Z 1900/1924 05006KT P6SM SCT090
     FM190200 04004KT P6SM BKN040
     FM190600 01008G16KT P6SM BKN015
     FM191600 36010G18KT P6SM BKN035=

USA.gov is the U.S. government's official web portal to all federal, state and local government web resources and services.